Aviation Digital Data Service (ADDS)

Output produced by METARs form (2122 UTC 24 May 2017)
found at http://aviationweather.gov/adds/metars/
 
KEWN 241728Z 2418/2518 19008KT P6SM VCSH SCT020 BKN040 
     FM242300 19011KT 5SM SHRA VCTS SCT007 OVC020CB 
     FM250600 20010KT P6SM OVC015 
     FM250900 22009KT P6SM SCT015 BKN040 
     FM251500 22015G23KT P6SM SCT050